Time;durP1;ratioP1;P1;durP2;ratioP2;P2;SDS_P1;SDS_P2;PMS_P1;PMS_P2;Temp;Humidity;BMP_temperature;BMP_pressure;BME280_temperature;BME280_humidity;BME280_pressure;Samples;Min_cycle;Max_cycle;Signal;HPM_P1;HPM_P2
2023/12/13 00:00:38;;;;;;;7.03;5.03;;;;;;;17.94;56.15;95358.03;10395789;28;20099;-30
2023/12/13 00:05:38;;;;;;;11.07;7.07;;;;;;;17.94;55.98;95347.91;10392215;28;20049;-30
2023/12/13 00:10:39;;;;;;;8.80;5.70;;;;;;;17.93;56.16;95342.00;10399816;28;20071;-29
2023/12/13 00:15:39;;;;;;;13.83;6.07;;;;;;;17.86;57.60;95327.81;10395717;28;20042;-29
2023/12/13 00:20:39;;;;;;;12.13;6.33;;;;;;;17.94;58.41;95337.78;10398320;28;20747;-29
2023/12/13 00:25:40;;;;;;;12.37;7.07;;;;;;;17.89;59.62;95331.97;10382279;28;20049;-30
2023/12/13 00:30:41;;;;;;;9.82;6.35;;;;;;;17.89;60.25;95334.50;10391961;28;20053;-29
2023/12/13 00:35:41;;;;;;;10.77;6.10;;;;;;;17.85;61.28;95317.72;10392206;28;20526;-28
2023/12/13 00:40:41;;;;;;;8.50;5.90;;;;;;;17.84;61.24;95300.88;10391679;28;20388;-29
2023/12/13 00:45:42;;;;;;;11.15;6.40;;;;;;;17.81;61.53;95316.09;10386539;28;20112;-29
2023/12/13 00:50:43;;;;;;;7.97;5.93;;;;;;;17.80;62.67;95301.78;10391263;28;20492;-29
2023/12/13 00:55:43;;;;;;;10.27;6.43;;;;;;;17.79;63.11;95305.19;10395835;28;20303;-30
2023/12/13 01:00:44;;;;;;;9.02;5.80;;;;;;;17.77;63.14;95310.28;10387563;28;20457;-30
2023/12/13 01:05:44;;;;;;;7.97;5.07;;;;;;;17.77;62.87;95284.97;10389101;28;20062;-30
2023/12/13 01:10:44;;;;;;;8.33;5.70;;;;;;;17.75;63.38;95301.06;10383659;28;20037;-29
2023/12/13 01:15:45;;;;;;;11.73;6.37;;;;;;;17.77;63.35;95306.91;10387802;28;20034;-29
2023/12/13 01:20:45;;;;;;;9.10;5.35;;;;;;;17.75;63.19;95301.06;10385470;28;20128;-29
2023/12/13 01:25:46;;;;;;;9.20;5.68;;;;;;;17.73;63.57;95307.84;10386518;28;20029;-29
2023/12/13 01:30:46;;;;;;;9.47;5.60;;;;;;;17.75;63.15;95301.06;10390572;28;20037;-30
2023/12/13 01:35:46;;;;;;;9.33;6.37;;;;;;;17.74;63.32;95296.84;10383800;28;20065;-30
2023/12/13 01:40:53;;;;;;;10.77;5.60;;;;;;;17.74;63.12;95299.38;10378884;28;20045;-29
2023/12/13 01:45:56;;;;;;;9.25;5.82;;;;;;;17.74;63.30;95296.84;10385936;28;20037;-30
2023/12/13 01:50:57;;;;;;;9.93;5.85;;;;;;;17.69;63.59;95288.50;10386196;28;20037;-30
2023/12/13 01:55:57;;;;;;;7.40;5.60;;;;;;;17.69;63.30;95275.84;10389093;28;20042;-29
2023/12/13 02:00:58;;;;;;;8.52;5.68;;;;;;;17.71;62.86;95279.19;10386542;28;20042;-29
2023/12/13 02:06:00;;;;;;;9.63;5.65;;;;;;;17.66;63.26;95271.69;10387512;28;20083;-30
2023/12/13 02:11:01;;;;;;;10.60;5.53;;;;;;;17.69;62.80;95264.06;10385710;28;20227;-30
2023/12/13 02:16:01;;;;;;;9.88;5.30;;;;;;;17.69;62.63;95265.72;10384426;28;20521;-30
2023/12/13 02:21:02;;;;;;;9.52;5.38;;;;;;;17.69;62.98;95265.72;10380630;28;20436;-29
2023/12/13 02:26:03;;;;;;;10.32;5.63;;;;;;;17.70;62.50;95267.41;10390840;28;20103;-29
2023/12/13 02:31:04;;;;;;;7.07;4.93;;;;;;;17.70;62.61;95257.28;10389158;28;20418;-30
2023/12/13 02:36:05;;;;;;;10.07;6.40;;;;;;;17.70;62.65;95237.03;10395539;28;20045;-29
2023/12/13 02:41:06;;;;;;;9.77;5.03;;;;;;;17.60;62.55;95220.38;10386474;28;20029;-29
2023/12/13 02:46:09;;;;;;;12.18;4.95;;;;;;;17.67;62.55;95226.97;10391241;28;20403;-29
2023/12/13 02:51:09;;;;;;;6.53;4.22;;;;;;;17.68;62.10;95218.50;10392335;28;20442;-29
2023/12/13 02:56:10;;;;;;;10.60;5.33;;;;;;;17.69;61.83;95210.06;10389651;28;20044;-30
2023/12/13 03:01:11;;;;;;;9.27;5.20;;;;;;;17.71;62.23;95200.72;10386303;28;20041;-29
2023/12/13 03:06:11;;;;;;;7.22;4.55;;;;;;;17.74;61.81;95198.16;10386178;28;20297;-30
2023/12/13 03:11:11;;;;;;;7.17;5.03;;;;;;;17.75;61.99;95202.34;10382476;28;20137;-29
2023/12/13 03:16:12;;;;;;;7.40;5.03;;;;;;;17.76;61.79;95191.34;10393580;28;20052;-29
2023/12/13 03:21:12;;;;;;;7.70;4.77;;;;;;;17.71;62.21;95186.38;10386735;28;20498;-29
2023/12/13 03:26:12;;;;;;;9.67;4.83;;;;;;;17.74;61.97;95188.03;10394100;28;20038;-30
2023/12/13 03:31:14;;;;;;;8.80;4.63;;;;;;;17.73;61.83;95177.06;10387034;28;20557;-29
2023/12/13 03:36:15;;;;;;;6.75;4.45;;;;;;;17.72;61.62;95162.75;10385218;28;20040;-30
2023/12/13 03:41:16;;;;;;;7.82;4.45;;;;;;;17.69;62.08;95152.69;10380481;28;20045;-30
2023/12/13 03:46:16;;;;;;;8.87;4.43;;;;;;;17.71;61.85;95147.56;10390389;28;20500;-30
2023/12/13 03:51:17;;;;;;;6.38;4.47;;;;;;;17.63;61.81;95149.44;10388343;28;20034;-31
2023/12/13 03:56:17;;;;;;;8.25;5.60;;;;;;;17.67;61.75;95146.00;10391865;28;20041;-30
2023/12/13 04:01:17;;;;;;;7.77;4.87;;;;;;;17.68;61.55;95138.34;10384491;28;20108;-30
2023/12/13 04:06:18;;;;;;;6.57;4.17;;;;;;;17.71;61.51;95137.44;10382366;28;20034;-29
2023/12/13 04:11:18;;;;;;;5.37;4.13;;;;;;;17.69;61.43;95132.44;10378196;28;20038;-30
2023/12/13 04:16:19;;;;;;;7.55;4.43;;;;;;;17.66;61.61;95131.69;10385183;28;20300;-29
2023/12/13 04:21:19;;;;;;;6.80;4.47;;;;;;;17.67;61.52;95146.00;10395255;28;20056;-29
2023/12/13 04:26:19;;;;;;;6.47;4.30;;;;;;;17.67;61.05;95125.75;10403337;28;20091;-29
2023/12/13 04:31:20;;;;;;;8.90;4.40;;;;;;;17.69;61.04;95129.06;10407254;28;20388;-29
2023/12/13 04:36:20;;;;;;;7.63;4.23;;;;;;;17.67;61.27;95128.28;10412036;28;20300;-29
2023/12/13 04:41:21;;;;;;;7.67;3.97;;;;;;;17.75;60.03;95121.34;10416133;28;20057;-29
2023/12/13 04:46:21;;;;;;;6.67;3.93;;;;;;;17.82;59.48;95117.81;10396485;28;20303;-29
2023/12/13 04:51:21;;;;;;;4.57;3.43;;;;;;;17.89;59.42;95109.19;10392335;28;20306;-29
2023/12/13 04:56:22;;;;;;;6.60;4.37;;;;;;;17.91;58.93;95104.94;10395107;28;20029;-29
2023/12/13 05:01:22;;;;;;;9.33;4.20;;;;;;;17.92;59.17;95101.53;10401455;28;20071;-30
2023/12/13 05:06:22;;;;;;;6.90;3.63;;;;;;;17.94;58.54;95117.53;10406014;28;20029;-30
2023/12/13 05:11:23;;;;;;;4.93;3.67;;;;;;;17.94;58.73;95107.41;10395919;28;20539;-31
2023/12/13 05:16:23;;;;;;;6.17;3.73;;;;;;;17.96;58.95;95105.66;10399055;28;20041;-30
2023/12/13 05:21:23;;;;;;;9.53;4.53;;;;;;;17.96;58.80;95095.53;10403240;28;20486;-29
2023/12/13 05:26:24;;;;;;;7.27;3.60;;;;;;;17.96;59.05;95095.53;10400325;28;20284;-30
2023/12/13 05:31:24;;;;;;;5.27;3.60;;;;;;;17.89;59.26;95087.25;10403861;28;20291;-29
2023/12/13 05:36:24;;;;;;;8.27;4.07;;;;;;;17.89;59.47;95101.59;10414425;28;20684;-29
2023/12/13 05:41:25;;;;;;;6.40;3.50;;;;;;;17.89;59.50;95096.53;10416806;28;20076;-31
2023/12/13 05:46:26;;;;;;;5.80;3.80;;;;;;;17.89;59.09;95086.41;10410064;28;20033;-29
2023/12/13 05:51:26;;;;;;;6.55;3.97;;;;;;;17.86;59.18;95089.88;10417660;28;20032;-30
2023/12/13 05:56:27;;;;;;;7.00;3.97;;;;;;;17.83;59.29;95084.84;10404014;28;20093;-29
2023/12/13 06:01:27;;;;;;;5.32;3.00;;;;;;;17.70;58.72;95064.94;10408751;28;20062;-31
2023/12/13 06:06:28;;;;;;;8.77;3.30;;;;;;;17.84;58.88;95080.63;10413169;28;20403;-29
2023/12/13 06:11:28;;;;;;;12.73;6.83;;;;;;;17.84;59.21;95078.09;10396638;28;20276;-30
2023/12/13 06:16:29;;;;;;;10.18;5.78;;;;;;;17.81;59.10;95068.88;10393338;28;20033;-29
2023/12/13 06:21:29;;;;;;;15.67;6.67;;;;;;;17.82;58.98;95054.53;10397523;28;20068;-30
2023/12/13 06:26:30;;;;;;;25.40;10.25;;;;;;;17.85;59.60;95075.56;10400846;28;20653;-30
2023/12/13 06:31:30;;;;;;;15.23;7.60;;;;;;;17.77;57.16;95063.94;10401526;28;20033;-31
2023/12/13 06:36:30;;;;;;;18.90;10.67;;;;;;;17.76;58.84;95049.63;10400800;28;20087;-31
2023/12/13 06:41:31;;;;;;;20.60;10.37;;;;;;;17.79;58.80;95052.91;10399388;28;20041;-30
2023/12/13 06:46:31;;;;;;;21.85;10.05;;;;;;;17.81;58.62;95056.22;10396169;28;20721;-29
2023/12/13 06:51:32;;;;;;;22.03;9.90;;;;;;;17.82;58.70;95054.53;10390386;28;20127;-29
2023/12/13 06:56:32;;;;;;;21.13;9.82;;;;;;;17.78;58.68;95047.88;10389464;28;20026;-29
2023/12/13 07:01:32;;;;;;;16.70;9.03;;;;;;;17.79;58.65;95052.91;10393837;28;20040;-29
2023/12/13 07:06:33;;;;;;;20.00;10.03;;;;;;;17.75;58.75;95043.72;10400862;28;20021;-29
2023/12/13 07:11:33;;;;;;;19.07;9.20;;;;;;;17.76;59.07;95049.63;10410968;28;20028;-30
2023/12/13 07:16:34;;;;;;;16.07;9.13;;;;;;;17.74;58.58;95052.16;10411753;28;20292;-31
2023/12/13 07:21:35;;;;;;;18.90;9.35;;;;;;;17.77;58.75;95066.47;10410644;28;20124;-29
2023/12/13 07:26:35;;;;;;;17.67;9.55;;;;;;;17.77;58.54;95067.31;10409838;28;20115;-29
2023/12/13 07:31:41;;;;;;;18.33;10.40;;;;;;;17.71;58.51;95052.25;10395083;28;20048;-30
2023/12/13 07:36:45;;;;;;;16.38;8.25;;;;;;;17.67;58.32;95045.59;10398244;28;20450;-29
2023/12/13 07:41:46;;;;;;;16.95;8.60;;;;;;;17.79;57.98;95055.44;10414313;28;20111;-30
2023/12/13 07:46:47;;;;;;;14.20;8.77;;;;;;;17.76;58.35;95063.09;10411772;28;20140;-29
2023/12/13 07:51:47;;;;;;;15.03;7.87;;;;;;;17.76;58.17;95049.63;10393667;28;20029;-30
2023/12/13 07:56:49;;;;;;;15.83;8.20;;;;;;;17.74;58.38;95051.34;10397196;28;20040;-30
2023/12/13 08:01:50;;;;;;;14.80;8.43;;;;;;;17.75;57.98;95048.78;10403350;28;20284;-29
2023/12/13 08:06:50;;;;;;;14.40;8.95;;;;;;;17.74;58.21;95043.75;10413457;28;20612;-30
2023/12/13 08:11:50;;;;;;;15.07;8.40;;;;;;;17.60;57.78;95023.84;10402553;28;20037;-29
2023/12/13 08:16:51;;;;;;;13.23;8.80;;;;;;;17.75;58.02;95047.94;10403596;28;20623;-29
2023/12/13 08:21:52;;;;;;;12.67;8.07;;;;;;;17.77;57.94;95051.28;10393652;28;20043;-30
2023/12/13 08:26:53;;;;;;;13.75;7.93;;;;;;;17.77;57.93;95053.81;10389455;28;20033;-30
2023/12/13 08:31:53;;;;;;;14.57;7.03;;;;;;;17.76;57.97;95044.56;10405418;28;20029;-29
2023/12/13 08:36:53;;;;;;;11.83;7.40;;;;;;;17.77;57.94;95051.28;10400261;28;20022;-30
2023/12/13 08:41:54;;;;;;;11.70;7.47;;;;;;;17.71;57.58;95042.13;10407518;28;20034;-30
2023/12/13 08:46:54;;;;;;;12.10;6.87;;;;;;;17.75;57.94;95063.13;10407755;28;20408;-30
2023/12/13 08:51:55;;;;;;;12.10;7.60;;;;;;;17.74;57.66;95059.75;10396688;28;20299;-30
2023/12/13 08:56:55;;;;;;;11.50;7.33;;;;;;;17.77;57.68;95063.94;10401150;28;20430;-30
2023/12/13 09:01:56;;;;;;;11.13;7.37;;;;;;;17.76;57.64;95074.91;10410522;28;20037;-30
2023/12/13 09:06:56;;;;;;;10.65;7.13;;;;;;;17.77;57.60;95071.53;10409738;28;20033;-30
2023/12/13 09:12:00;;;;;;;11.95;7.05;;;;;;;17.76;57.55;95067.34;10398141;28;20025;-29
2023/12/13 09:17:01;;;;;;;12.23;6.63;;;;;;;17.76;57.39;95067.34;10400626;28;20475;-30
2023/12/13 09:22:03;;;;;;;11.85;7.60;;;;;;;17.78;57.30;95063.06;10407862;28;20112;-29
2023/12/13 09:27:04;;;;;;;9.88;6.82;;;;;;;17.76;57.56;95064.81;10398723;28;20038;-29
2023/12/13 09:32:04;;;;;;;8.70;6.20;;;;;;;17.77;57.42;95061.41;10402880;28;20020;-28
2023/12/13 09:37:06;;;;;;;10.13;6.47;;;;;;;17.79;57.58;95062.19;10395901;28;20034;-31
2023/12/13 09:42:07;;;;;;;11.10;6.60;;;;;;;17.74;57.28;95056.41;10400154;28;20034;-29
2023/12/13 09:47:08;;;;;;;11.13;7.35;;;;;;;17.78;57.14;95052.94;10397757;28;20098;-30
2023/12/13 09:52:09;;;;;;;12.27;7.30;;;;;;;17.77;57.14;95058.88;10396414;28;20093;-30
2023/12/13 09:57:10;;;;;;;10.35;6.95;;;;;;;17.78;56.63;95065.59;10406502;28;20038;-29
2023/12/13 10:02:17;;;;;;;9.93;6.27;;;;;;;17.79;56.91;95069.78;10400181;28;20503;-30
2023/12/13 10:07:17;;;;;;;11.40;6.07;;;;;;;17.79;56.67;95078.22;10402509;28;20040;-29
2023/12/13 10:12:18;;;;;;;10.18;6.22;;;;;;;17.79;56.99;95079.91;10401314;28;20044;-29
2023/12/13 10:17:20;;;;;;;9.63;5.82;;;;;;;17.79;57.04;95067.25;10396885;28;20527;-29
2023/12/13 10:22:21;;;;;;;11.15;7.10;;;;;;;17.76;56.94;95069.88;10398312;28;20038;-30
2023/12/13 10:27:21;;;;;;;10.18;6.25;;;;;;;17.78;57.13;95080.78;10397576;28;20561;-31
2023/12/13 10:32:22;;;;;;;8.63;6.00;;;;;;;17.77;56.54;95067.31;10397934;28;20044;-36
2023/12/13 10:37:27;;;;;;;11.05;6.78;;;;;;;17.80;56.75;95076.50;10392428;28;20038;-30
2023/12/13 10:42:29;;;;;;;8.48;6.25;;;;;;;17.78;56.41;95078.25;10396580;28;20127;-30
2023/12/13 10:47:33;;;;;;;10.27;6.38;;;;;;;17.76;57.13;95065.63;10405594;28;20128;-29
2023/12/13 10:52:33;;;;;;;9.02;6.15;;;;;;;17.79;56.74;95069.78;10408715;28;20029;-29
2023/12/13 10:57:38;;;;;;;8.38;5.60;;;;;;;17.79;56.88;95063.03;10399715;28;20094;-30
2023/12/13 11:02:48;;;;;;;9.75;6.22;;;;;;;17.75;57.22;95053.81;10399053;28;20484;-29
2023/12/13 11:07:50;;;;;;;9.02;5.70;;;;;;;17.77;56.76;95056.34;10401465;28;20030;-31
2023/12/13 11:12:52;;;;;;;6.60;4.28;;;;;;;17.79;56.19;95049.53;10401121;28;20041;-29
2023/12/13 11:17:55;;;;;;;6.90;4.43;;;;;;;17.79;56.45;95032.66;10399441;28;20034;-29
2023/12/13 11:22:56;;;;;;;7.82;4.72;;;;;;;17.80;56.26;95025.88;10405196;28;20036;-30
2023/12/13 11:27:57;;;;;;;7.47;4.35;;;;;;;17.80;55.95;95018.28;10397942;28;20052;-29
2023/12/13 11:32:57;;;;;;;15.10;5.57;;;;;;;17.83;55.93;95010.63;10396882;28;20036;-29
2023/12/13 11:37:59;;;;;;;10.90;5.30;;;;;;;17.79;55.70;95002.28;10401468;28;20022;-30
2023/12/13 11:42:59;;;;;;;7.60;4.68;;;;;;;17.84;56.29;95009.75;10404541;28;20295;-30
2023/12/13 11:48:01;;;;;;;6.82;4.10;;;;;;;17.86;56.42;95020.69;10403995;28;20501;-30
2023/12/13 11:53:01;;;;;;;6.80;4.82;;;;;;;17.85;56.63;95003.81;10395846;28;20044;-30
2023/12/13 11:58:03;;;;;;;8.50;5.37;;;;;;;17.87;55.84;94991.97;10395244;28;20029;-30
2023/12/13 12:03:04;;;;;;;12.70;5.65;;;;;;;17.84;56.14;94997.91;10397334;28;20686;-30
2023/12/13 12:08:07;;;;;;;6.30;4.63;;;;;;;17.86;56.31;94995.38;10395468;28;20029;-30
2023/12/13 12:13:08;;;;;;;7.93;5.45;;;;;;;17.87;56.08;94986.91;10402732;28;20037;-31
2023/12/13 12:18:08;;;;;;;9.43;5.53;;;;;;;17.87;56.51;94980.16;10395347;28;20026;-31
2023/12/13 12:23:10;;;;;;;7.80;5.60;;;;;;;17.86;55.88;94975.09;10407648;28;20666;-30
2023/12/13 12:28:11;;;;;;;9.05;5.55;;;;;;;17.85;56.23;94961.63;10393825;28;20521;-32
2023/12/13 12:33:13;;;;;;;17.10;5.85;;;;;;;17.85;56.47;94955.72;10388631;28;20040;-30
2023/12/13 12:38:14;;;;;;;11.35;6.35;;;;;;;17.87;57.16;94956.50;10393954;28;20050;-29
2023/12/13 12:43:18;;;;;;;9.80;5.20;;;;;;;17.81;57.43;94959.19;10396332;28;20036;-29
2023/12/13 12:48:20;;;;;;;17.10;6.13;;;;;;;17.83;57.26;94970.13;10393955;28;20124;-29
2023/12/13 12:53:20;;;;;;;6.95;5.50;;;;;;;17.86;56.79;94965.84;10389442;28;20041;-29
2023/12/13 12:58:21;;;;;;;9.33;5.27;;;;;;;17.87;56.79;94962.44;10393664;28;20029;-30
2023/12/13 13:03:21;;;;;;;8.93;5.43;;;;;;;17.89;56.95;94950.56;10397072;28;20041;-30
2023/12/13 13:08:21;;;;;;;10.35;5.78;;;;;;;17.87;57.09;94962.44;10395412;28;20125;-30
2023/12/13 13:13:22;;;;;;;11.43;4.70;;;;;;;17.88;56.98;94953.13;10391662;28;20041;-29
2023/12/13 13:18:22;;;;;;;8.13;4.85;;;;;;;17.83;57.06;94945.63;10391142;28;20033;-28
2023/12/13 13:23:23;;;;;;;9.07;5.63;;;;;;;17.89;56.77;94969.97;10392709;28;20041;-31
2023/12/13 13:28:23;;;;;;;11.90;4.70;;;;;;;17.89;56.80;94969.97;10400479;28;20049;-31
2023/12/13 13:33:24;;;;;;;8.30;4.30;;;;;;;17.79;56.34;94968.53;10390573;28;20276;-30
2023/12/13 13:38:25;;;;;;;9.02;4.35;;;;;;;17.82;56.81;94964.22;10391515;28;20021;-30
2023/12/13 13:43:26;;;;;;;12.02;4.90;;;;;;;17.84;57.31;94964.19;10388735;28;20042;-29
2023/12/13 13:48:26;;;;;;;8.32;4.47;;;;;;;17.84;57.09;94972.59;10385589;28;20082;-30
2023/12/13 13:53:27;;;;;;;8.65;4.75;;;;;;;17.87;56.96;94974.25;10383091;28;21133;-30
2023/12/13 13:58:27;;;;;;;7.47;4.43;;;;;;;17.85;57.10;94978.50;10388036;28;20057;-30
2023/12/13 14:03:28;;;;;;;11.40;4.78;;;;;;;17.85;57.36;94976.81;10386853;28;20115;-30
2023/12/13 14:08:28;;;;;;;9.83;5.17;;;;;;;17.82;57.13;94976.88;10383311;28;20042;-30
2023/12/13 14:13:31;;;;;;;8.70;5.47;;;;;;;17.83;57.39;94981.06;10386834;28;20292;-30
2023/12/13 14:18:32;;;;;;;7.85;4.47;;;;;;;17.85;57.77;94988.63;10388130;28;20063;-29
2023/12/13 14:23:32;;;;;;;8.48;5.00;;;;;;;17.86;57.30;94996.22;10388940;28;20121;-30
2023/12/13 14:28:33;;;;;;;7.27;4.50;;;;;;;17.84;57.28;95004.69;10383916;28;20052;-30
2023/12/13 14:33:34;;;;;;;7.80;4.47;;;;;;;17.85;57.02;95006.34;10381560;28;20048;-29
2023/12/13 14:38:34;;;;;;;7.35;4.25;;;;;;;17.86;56.83;95011.41;10391331;28;20033;-31
2023/12/13 14:43:34;;;;;;;5.77;3.67;;;;;;;17.85;56.67;95013.94;10386541;28;20411;-30
2023/12/13 14:48:35;;;;;;;6.03;4.20;;;;;;;17.85;56.83;95021.53;10380252;28;20518;-30
2023/12/13 14:53:36;;;;;;;5.32;3.58;;;;;;;17.85;56.83;95013.94;10378889;28;20307;-29
2023/12/13 14:58:37;;;;;;;7.73;4.27;;;;;;;17.85;57.24;95019.00;10390248;28;20116;-29
2023/12/13 15:03:38;;;;;;;5.88;3.80;;;;;;;17.86;56.94;95021.53;10384567;28;20292;-30
2023/12/13 15:08:38;;;;;;;4.77;3.43;;;;;;;17.85;56.90;95019.88;10381979;28;20538;-30
2023/12/13 15:13:38;;;;;;;6.55;4.13;;;;;;;17.84;56.83;95022.41;10384863;28;20087;-31
2023/12/13 15:18:39;;;;;;;7.87;4.27;;;;;;;17.84;57.00;95017.34;10385763;28;20114;-30
2023/12/13 15:23:40;;;;;;;5.82;3.85;;;;;;;17.81;56.64;95015.72;10381653;28;20037;-29
2023/12/13 15:28:40;;;;;;;6.50;3.30;;;;;;;17.85;56.25;95011.44;10390389;28;20152;-29
2023/12/13 15:33:41;;;;;;;7.20;4.20;;;;;;;17.86;56.53;95023.19;10382663;28;20168;-29
2023/12/13 15:38:41;;;;;;;5.10;3.33;;;;;;;17.85;56.85;95034.19;10388145;28;20044;-29
2023/12/13 15:43:43;;;;;;;5.32;3.20;;;;;;;17.87;56.47;95042.59;10391035;28;20303;-27
2023/12/13 15:48:43;;;;;;;5.97;3.42;;;;;;;17.85;56.78;95034.19;10385732;28;20037;-30
2023/12/13 15:53:44;;;;;;;5.43;3.60;;;;;;;17.88;56.51;95034.13;10388706;28;20111;-29
2023/12/13 15:58:44;;;;;;;6.27;3.67;;;;;;;17.87;56.54;95045.13;10388713;28;20045;-29
2023/12/13 16:03:45;;;;;;;6.97;3.30;;;;;;;17.87;56.65;95052.72;10387801;28;20056;-29
2023/12/13 16:08:48;;;;;;;4.78;3.35;;;;;;;17.87;56.47;95052.72;10383665;28;20041;-30
2023/12/13 16:13:48;;;;;;;6.15;3.75;;;;;;;17.87;56.79;95052.72;10388429;28;20140;-29
2023/12/13 16:18:49;;;;;;;3.80;3.27;;;;;;;17.87;56.69;95062.84;10389127;28;20109;-30
2023/12/13 16:23:50;;;;;;;4.60;2.75;;;;;;;17.86;56.51;95066.25;10381331;28;20029;-30
2023/12/13 16:28:50;;;;;;;4.35;3.10;;;;;;;17.88;56.95;95069.56;10386855;28;20029;-30
2023/12/13 16:33:51;;;;;;;4.23;2.77;;;;;;;17.85;56.50;95074.69;10382856;28;20037;-30
2023/12/13 16:38:51;;;;;;;4.03;3.10;;;;;;;17.87;56.35;95083.09;10385860;28;20476;-30
2023/12/13 16:43:52;;;;;;;4.75;3.60;;;;;;;17.86;56.30;95081.44;10378051;28;20406;-32
2023/12/13 16:48:52;;;;;;;6.13;3.27;;;;;;;17.86;56.34;95087.34;10388959;28;20705;-31
2023/12/13 16:53:52;;;;;;;6.72;3.40;;;;;;;17.87;56.42;95086.47;10388878;28;20033;-33
2023/12/13 16:58:53;;;;;;;6.53;3.33;;;;;;;17.86;56.39;95091.56;10382234;28;20032;-30
2023/12/13 17:03:57;;;;;;;5.63;2.83;;;;;;;17.87;56.42;95110.94;10387242;28;20543;-30
2023/12/13 17:08:59;;;;;;;3.65;2.50;;;;;;;17.85;56.46;95110.16;10376156;28;20532;-29
2023/12/13 17:13:59;;;;;;;3.13;2.50;;;;;;;17.86;56.53;95114.34;10404983;28;20033;-29
2023/12/13 17:19:00;;;;;;;2.90;2.37;;;;;;;17.85;56.44;95118.59;10407532;28;20045;-29
2023/12/13 17:24:00;;;;;;;3.80;2.43;;;;;;;17.84;56.44;95129.53;10398921;28;20087;-29
2023/12/13 17:29:00;;;;;;;4.07;2.67;;;;;;;17.85;56.44;95132.94;10411275;28;20041;-30
2023/12/13 17:34:01;;;;;;;3.60;3.07;;;;;;;17.84;56.55;95141.38;10405390;28;20067;-30
2023/12/13 17:39:01;;;;;;;4.27;3.20;;;;;;;17.75;56.30;95123.88;10408060;28;20100;-29
2023/12/13 17:44:02;;;;;;;4.28;2.58;;;;;;;17.86;56.19;95162.44;10400994;28;20495;-31
2023/12/13 17:49:02;;;;;;;5.97;2.63;;;;;;;17.82;56.34;95165.91;10397568;28;20040;-30
2023/12/13 17:54:03;;;;;;;3.77;2.50;;;;;;;17.87;56.55;95194.47;10405073;28;20483;-29
2023/12/13 17:59:03;;;;;;;3.20;2.55;;;;;;;17.88;56.27;95207.09;10408254;28;20290;-30
2023/12/13 18:04:05;;;;;;;3.78;2.22;;;;;;;17.89;56.29;95225.63;10409275;28;20040;-30
2023/12/13 18:09:05;;;;;;;4.00;2.70;;;;;;;17.88;55.98;95239.16;10404373;28;20076;-30
2023/12/13 18:14:06;;;;;;;4.10;2.70;;;;;;;17.86;56.27;95243.44;10404024;28;20116;-29
2023/12/13 18:19:06;;;;;;;2.90;2.35;;;;;;;17.87;56.12;95260.28;10405102;28;20434;-29
2023/12/13 18:24:07;;;;;;;3.75;2.58;;;;;;;17.84;56.29;95263.72;10387243;28;20025;-31
2023/12/13 18:29:07;;;;;;;3.97;2.60;;;;;;;17.87;56.47;95272.94;10410553;28;20121;-29
2023/12/13 18:34:07;;;;;;;4.13;2.70;;;;;;;17.86;56.22;95273.81;10390904;28;20041;-29
2023/12/13 18:39:09;;;;;;;3.90;2.80;;;;;;;17.86;56.40;95271.28;10401552;28;20392;-30
2023/12/13 18:44:09;;;;;;;3.60;2.50;;;;;;;17.83;55.96;95279.78;10400965;28;20297;-29
2023/12/13 18:49:10;;;;;;;3.53;1.97;;;;;;;17.85;56.20;95292.41;10408239;28;20045;-29
2023/12/13 18:54:10;;;;;;;2.87;2.17;;;;;;;17.85;56.32;95287.34;10399118;28;20573;-30
2023/12/13 18:59:10;;;;;;;3.63;2.67;;;;;;;17.85;56.24;95294.94;10402676;28;20033;-29
2023/12/13 19:04:11;;;;;;;2.70;2.13;;;;;;;17.85;56.07;95305.91;10398789;28;20040;-29
2023/12/13 19:09:11;;;;;;;6.22;2.80;;;;;;;17.86;55.47;95305.03;10396547;28;20083;-30
2023/12/13 19:14:12;;;;;;;4.47;2.47;;;;;;;17.79;56.02;95307.72;10403130;28;20030;-29
2023/12/13 19:19:13;;;;;;;4.00;2.30;;;;;;;17.91;55.71;95310.81;10403346;28;20025;-29
2023/12/13 19:24:13;;;;;;;4.78;2.00;;;;;;;17.90;56.41;95308.34;10406687;28;20299;-30
2023/12/13 19:29:15;;;;;;;6.30;4.13;;;;;;;17.89;56.34;95311.72;10405052;28;20496;-30
2023/12/13 19:34:15;;;;;;;5.53;3.25;;;;;;;17.89;56.36;95320.16;10400186;28;20496;-29
2023/12/13 19:39:16;;;;;;;8.17;2.60;;;;;;;17.84;56.07;95308.47;10409328;28;20033;-30
2023/12/13 19:44:16;;;;;;;5.05;2.10;;;;;;;17.90;57.11;95331.13;10408885;28;20817;-29
2023/12/13 19:49:17;;;;;;;6.53;2.45;;;;;;;17.86;57.61;95335.41;10410643;28;20049;-30
2023/12/13 19:54:18;;;;;;;4.03;2.25;;;;;;;17.88;57.58;95332.84;10393232;28;20057;-30
2023/12/13 19:59:18;;;;;;;3.73;2.30;;;;;;;17.89;57.10;95342.09;10393325;28;20419;-29
2023/12/13 20:04:18;;;;;;;5.87;2.37;;;;;;;17.89;57.19;95339.56;10396546;28;20075;-30
2023/12/13 20:09:19;;;;;;;4.35;2.45;;;;;;;17.88;56.74;95342.97;10401501;28;20480;-29
2023/12/13 20:14:19;;;;;;;3.83;2.72;;;;;;;17.93;57.00;95352.13;10395535;28;20041;-29
2023/12/13 20:19:19;;;;;;;3.90;2.67;;;;;;;17.95;56.97;95359.72;10397581;28;20033;-29
2023/12/13 20:24:20;;;;;;;4.77;3.17;;;;;;;17.97;56.48;95357.97;10397426;28;20618;-30
2023/12/13 20:29:20;;;;;;;6.23;3.13;;;;;;;17.96;56.93;95366.44;10398267;28;20034;-29
2023/12/13 20:34:20;;;;;;;5.07;2.77;;;;;;;17.96;56.96;95376.56;10398282;28;20040;-30
2023/12/13 20:39:21;;;;;;;8.33;3.30;;;;;;;17.91;57.75;95388.50;10394075;28;20037;-30
2023/12/13 20:44:21;;;;;;;6.10;3.23;;;;;;;17.93;57.55;95394.34;10395495;28;20037;-30
2023/12/13 20:49:22;;;;;;;6.50;3.43;;;;;;;17.93;57.04;95402.78;10395202;28;20041;-31
2023/12/13 20:54:22;;;;;;;5.47;3.15;;;;;;;17.96;57.17;95412.00;10396582;28;20300;-31
2023/12/13 20:59:23;;;;;;;8.80;3.33;;;;;;;17.98;56.78;95421.25;10400328;28;20092;-29
2023/12/13 21:04:23;;;;;;;8.83;4.17;;;;;;;17.94;57.56;95421.34;10400124;28;20413;-32
2023/12/13 21:09:23;;;;;;;8.53;4.30;;;;;;;17.94;57.84;95426.41;10400686;28;20293;-30
2023/12/13 21:14:24;;;;;;;5.57;3.53;;;;;;;17.87;57.88;95429.91;10401000;28;20056;-31
2023/12/13 21:19:24;;;;;;;6.13;3.43;;;;;;;17.85;58.18;95435.03;10398275;28;20026;-30
2023/12/13 21:24:24;;;;;;;6.13;3.83;;;;;;;17.82;58.00;95435.06;10400363;28;20775;-29
2023/12/13 21:29:25;;;;;;;8.07;3.38;;;;;;;17.82;57.91;95450.25;10397172;28;20037;-29
2023/12/13 21:34:25;;;;;;;5.07;3.22;;;;;;;17.77;58.04;95456.25;10399655;28;20624;-29
2023/12/13 21:39:26;;;;;;;7.28;3.60;;;;;;;17.78;57.79;95468.03;10389473;28;20040;-29
2023/12/13 21:44:26;;;;;;;5.57;3.60;;;;;;;17.78;57.72;95462.97;10406804;28;20028;-29
2023/12/13 21:49:27;;;;;;;5.85;3.75;;;;;;;17.74;57.83;95466.44;10403312;28;20041;-30
2023/12/13 21:54:27;;;;;;;7.07;3.03;;;;;;;17.74;57.83;95481.63;10402993;28;20041;-29
2023/12/13 21:59:27;;;;;;;4.80;3.33;;;;;;;17.73;57.86;95495.97;10396041;28;20049;-30
2023/12/13 22:04:30;;;;;;;4.73;3.03;;;;;;;17.72;57.81;95494.31;10398651;28;20423;-31
2023/12/13 22:09:31;;;;;;;7.60;3.25;;;;;;;17.71;57.98;95509.50;10397447;28;20372;-29
2023/12/13 22:14:31;;;;;;;4.53;2.33;;;;;;;17.68;58.05;95507.03;10402935;28;20041;-29
2023/12/13 22:24:38;;;;;;;8.70;3.42;;;;;;;17.73;57.68;95520.47;10392762;28;20037;-29
2023/12/13 22:29:39;;;;;;;6.00;3.60;;;;;;;17.75;57.46;95522.09;10392511;28;20455;-29
2023/12/13 22:34:39;;;;;;;8.13;3.70;;;;;;;17.68;57.77;95522.22;10397354;28;20095;-31
2023/12/13 22:39:39;;;;;;;9.50;3.63;;;;;;;17.74;57.72;95522.94;10394098;28;20666;-32
2023/12/13 22:44:40;;;;;;;6.30;4.13;;;;;;;17.74;57.75;95525.47;10395838;28;20119;-30
2023/12/13 22:49:40;;;;;;;5.07;3.27;;;;;;;17.76;57.41;95535.59;10400256;28;20370;-30
2023/12/13 22:54:40;;;;;;;7.03;3.50;;;;;;;17.72;57.69;95536.47;10399937;28;20128;-29
2023/12/13 22:59:41;;;;;;;5.80;3.53;;;;;;;17.74;57.87;95544.91;10398233;28;20041;-29
2023/12/13 23:04:41;;;;;;;4.20;2.90;;;;;;;17.80;57.65;95550.69;10396791;28;20044;-30
2023/12/13 23:09:43;;;;;;;6.13;3.33;;;;;;;17.80;57.56;95557.44;10397276;28;20183;-29
2023/12/13 23:14:43;;;;;;;5.03;3.25;;;;;;;17.82;57.95;95560.81;10406482;28;21583;-30